Houston Lake, Missouri
Current Conditions -  °F | °C
As of 11:54 PM on Friday 19 Dec 2014 (Local Time) from KMKC Reporting Station
Haze Haze  
Wind Chill:   Ceiling: 600
Heat Index:   Visibility: 6mi
Dew Point:   Wind: 3mph
Humidity: 92%   Direction: 260°W
Pressure: 30.22"   Gusts: NA
Location:  39.2125°N, 94.6296°W
Report Text: KMKC 200554Z 26003KT 6SM BR OVC006 01/00 A3022 RMK AO2 SLP239 T00110000 10022 20011 400220000 53001
Loading
Personal Weather Stations






























Interactive Weather Map New forecast layout! Learn more

10-Day Weather Forecast

Advertisements
Track Severe Weather on mobile